Time;durP1;ratioP1;P1;durP2;ratioP2;P2;SDS_P1;SDS_P2;PMS_P1;PMS_P2;Temp;Humidity;BMP_temperature;BMP_pressure;BME280_temperature;BME280_humidity;BME280_pressure;Samples;Min_cycle;Max_cycle;Signal;HPM_P1;HPM_P2
2023/12/07 00:02:18;;;;;;;30.07;10.83;;;1.30;99.90;;;;;;5017898;28;20201;-85
2023/12/07 00:04:49;;;;;;;28.67;10.50;;;1.30;99.90;;;;;;5016993;28;20516;-85
2023/12/07 00:07:18;;;;;;;35.40;12.13;;;1.30;99.90;;;;;;5017089;28;20154;-85
2023/12/07 00:09:43;;;;;;;38.17;12.98;;;1.30;99.90;;;;;;5016775;28;20225;-85
2023/12/07 00:17:15;;;;;;;33.58;11.25;;;1.30;99.90;;;;;;5053986;28;20208;-87
2023/12/07 00:19:45;;;;;;;33.28;11.57;;;1.20;99.90;;;;;;5055935;28;20247;-87
2023/12/07 00:22:11;;;;;;;30.67;11.05;;;1.20;99.90;;;;;;5055818;28;20265;-84
2023/12/07 00:24:39;;;;;;;30.60;11.50;;;1.10;99.90;;;;;;5054692;28;20188;-84
2023/12/07 00:27:07;;;;;;;30.95;11.75;;;1.20;99.90;;;;;;5055176;28;20164;-84
2023/12/07 00:29:32;;;;;;;34.20;11.57;;;1.20;99.90;;;;;;5037809;28;20187;-84
2023/12/07 00:32:01;;;;;;;32.10;10.80;;;1.20;99.90;;;;;;5037662;28;20209;-84
2023/12/07 00:34:27;;;;;;;36.90;12.07;;;1.10;99.90;;;;;;5055362;28;20554;-84
2023/12/07 00:36:55;;;;;;;33.27;11.70;;;1.20;99.90;;;;;;5055245;28;20165;-84
2023/12/07 00:39:24;;;;;;;29.95;11.20;;;1.00;99.90;;;;;;5055582;28;20547;-84
2023/12/07 00:41:52;;;;;;;29.90;10.80;;;1.00;99.90;;;;;;5054990;28;20191;-84
2023/12/07 00:44:18;;;;;;;39.13;12.00;;;1.00;99.90;;;;;;5055621;28;20188;-84
2023/12/07 00:46:43;;;;;;;30.70;11.53;;;0.90;99.90;;;;;;5037699;28;20529;-84
2023/12/07 00:49:09;;;;;;;30.70;11.60;;;0.90;99.90;;;;;;5041141;28;20669;-84
2023/12/07 00:51:43;;;;;;;33.20;13.10;;;0.90;99.90;;;;;;5059516;28;20814;-84
2023/12/07 00:54:08;;;;;;;31.20;12.02;;;0.90;99.90;;;;;;5059508;28;20192;-84
2023/12/07 00:56:35;;;;;;;31.60;12.50;;;1.00;99.90;;;;;;5113220;22;20227;-86
2023/12/07 00:59:01;;;;;;;37.47;14.55;;;1.00;99.90;;;;;;5178287;22;20266;-86
2023/12/07 01:01:28;;;;;;;34.97;12.93;;;1.00;99.90;;;;;;5059162;28;20558;-84
2023/12/07 01:04:02;;;;;;;37.00;12.95;;;1.00;99.90;;;;;;5059724;28;20188;-84
2023/12/07 01:06:28;;;;;;;33.25;13.25;;;0.90;99.90;;;;;;5042049;28;20171;-84
2023/12/07 01:08:56;;;;;;;35.20;12.93;;;1.00;99.90;;;;;;5060039;28;20166;-84
2023/12/07 01:11:24;;;;;;;40.38;13.23;;;0.90;99.90;;;;;;5042956;28;20226;-84
2023/12/07 01:13:50;;;;;;;33.17;12.38;;;0.90;99.90;;;;;;5042533;28;20652;-84
2023/12/07 01:16:16;;;;;;;33.23;13.20;;;0.90;99.90;;;;;;5061027;28;20252;-84
2023/12/07 01:18:42;;;;;;;32.73;12.20;;;0.90;99.90;;;;;;5060620;28;20199;-84
2023/12/07 01:21:07;;;;;;;33.17;12.37;;;0.80;99.90;;;;;;5060344;28;20447;-84
2023/12/07 01:23:33;;;;;;;39.70;12.60;;;0.90;99.90;;;;;;5060973;28;20167;-84
2023/12/07 01:26:02;;;;;;;36.63;12.00;;;0.80;99.90;;;;;;5061037;28;20638;-84
2023/12/07 01:28:28;;;;;;;32.75;11.95;;;0.80;99.90;;;;;;5061304;28;20161;-84
2023/12/07 01:30:53;;;;;;;40.78;13.32;;;0.90;99.90;;;;;;5042923;28;20192;-84
2023/12/07 01:33:19;;;;;;;35.90;14.30;;;0.90;99.90;;;;;;5061452;28;20163;-84
2023/12/07 01:35:45;;;;;;;36.40;13.90;;;1.00;99.90;;;;;;5061547;28;20635;-84
2023/12/07 01:38:12;;;;;;;36.40;12.30;;;1.00;99.90;;;;;;5043793;28;20264;-84
2023/12/07 01:40:38;;;;;;;34.28;12.50;;;1.10;99.90;;;;;;5042981;28;20835;-84
2023/12/07 01:43:06;;;;;;;38.53;13.10;;;1.00;99.90;;;;;;5062609;28;20251;-84
2023/12/07 01:45:32;;;;;;;33.05;12.05;;;1.00;99.90;;;;;;5043552;28;20276;-84
2023/12/07 01:47:59;;;;;;;31.00;12.90;;;0.90;99.90;;;;;;5043832;28;20206;-84
2023/12/07 01:50:26;;;;;;;33.65;13.63;;;1.00;99.90;;;;;;5043868;28;20166;-84
2023/12/07 01:53:01;;;;;;;40.65;13.82;;;1.00;99.90;;;;;;5060880;28;20172;-84
2023/12/07 01:55:29;;;;;;;38.90;14.27;;;1.00;99.90;;;;;;5061758;28;20600;-84
2023/12/07 01:57:55;;;;;;;36.78;13.43;;;0.90;99.90;;;;;;5043242;28;20177;-84
2023/12/07 02:00:20;;;;;;;36.53;12.70;;;0.90;99.90;;;;;;5043113;28;20522;-84
2023/12/07 02:02:47;;;;;;;38.53;12.70;;;0.90;99.90;;;;;;5061982;28;20189;-84
2023/12/07 02:05:16;;;;;;;41.45;13.90;;;0.90;99.90;;;;;;5062740;28;20416;-84
2023/12/07 02:07:42;;;;;;;34.80;13.30;;;0.90;99.90;;;;;;5062347;28;20529;-84
2023/12/07 02:10:08;;;;;;;31.10;11.70;;;0.80;99.90;;;;;;5045552;28;20169;-84
2023/12/07 02:12:37;;;;;;;35.60;13.77;;;0.80;99.90;;;;;;5063305;28;20406;-84
2023/12/07 02:15:04;;;;;;;34.28;13.70;;;0.90;99.90;;;;;;5062963;28;20555;-84
2023/12/07 02:17:38;;;;;;;40.28;14.25;;;0.80;99.90;;;;;;5044953;28;20177;-84
2023/12/07 02:20:28;;;;;;;33.17;13.02;;;0.70;99.90;;;;;;5045232;28;20164;-84
2023/12/07 02:22:56;;;;;;;34.25;13.20;;;0.70;99.90;;;;;;5064313;28;20176;-83
2023/12/07 02:25:32;;;;;;;33.38;13.07;;;0.80;99.90;;;;;;5064142;28;20177;-84
2023/12/07 02:27:58;;;;;;;36.10;13.07;;;0.70;99.90;;;;;;5063696;28;20145;-84
2023/12/07 02:30:23;;;;;;;38.50;14.27;;;0.70;99.90;;;;;;5064159;28;20169;-84
2023/12/07 02:32:49;;;;;;;35.30;12.67;;;0.70;99.90;;;;;;5045927;28;20492;-83
2023/12/07 02:35:15;;;;;;;36.47;13.80;;;0.70;99.90;;;;;;5046029;28;20255;-84
2023/12/07 02:37:46;;;;;;;34.47;11.63;;;0.70;99.90;;;;;;5064436;28;20402;-84
2023/12/07 02:40:14;;;;;;;33.90;13.35;;;0.70;99.90;;;;;;5046900;28;20172;-83
2023/12/07 02:42:42;;;;;;;33.63;12.68;;;0.60;99.90;;;;;;5064460;28;20666;-85
2023/12/07 02:45:09;;;;;;;33.67;12.95;;;0.50;99.90;;;;;;5045608;28;20193;-85
2023/12/07 02:47:35;;;;;;;34.50;12.68;;;0.50;99.90;;;;;;5064503;28;20157;-83
2023/12/07 02:50:05;;;;;;;41.58;14.07;;;0.50;99.90;;;;;;5047632;28;20169;-83
2023/12/07 02:52:31;;;;;;;30.42;10.48;;;0.60;99.90;;;;;;5047508;28;20161;-84
2023/12/07 02:54:57;;;;;;;32.57;13.47;;;0.60;99.90;;;;;;5046618;28;20219;-83
2023/12/07 02:57:23;;;;;;;37.67;14.77;;;0.70;99.90;;;;;;5064217;28;20457;-84
2023/12/07 02:59:48;;;;;;;35.10;12.70;;;0.70;99.90;;;;;;5047064;28;20193;-83
2023/12/07 03:02:14;;;;;;;31.33;11.83;;;0.70;99.90;;;;;;5064584;28;20193;-85
2023/12/07 03:04:39;;;;;;;31.90;12.27;;;0.70;99.90;;;;;;5064929;28;20211;-86
2023/12/07 03:07:08;;;;;;;36.97;14.27;;;0.80;99.90;;;;;;5046002;28;20198;-85
2023/12/07 03:09:34;;;;;;;33.03;12.60;;;0.80;99.90;;;;;;5063873;28;20161;-85
2023/12/07 03:12:00;;;;;;;32.37;12.10;;;0.90;99.90;;;;;;5046283;28;20206;-85
2023/12/07 03:14:25;;;;;;;34.57;12.80;;;0.90;99.90;;;;;;5065099;28;20215;-84
2023/12/07 03:16:54;;;;;;;33.63;12.00;;;1.00;99.90;;;;;;5046558;28;20169;-83
2023/12/07 03:19:20;;;;;;;36.00;15.05;;;0.90;99.90;;;;;;5064704;28;20165;-83
2023/12/07 03:21:45;;;;;;;34.30;11.97;;;0.90;99.90;;;;;;5065170;28;20205;-83
2023/12/07 03:24:11;;;;;;;38.10;12.67;;;0.80;99.90;;;;;;5065016;28;20185;-85
2023/12/07 03:26:37;;;;;;;31.03;12.40;;;0.80;99.90;;;;;;5065097;28;20189;-83
2023/12/07 03:29:03;;;;;;;33.15;11.90;;;0.80;99.90;;;;;;5064454;28;20170;-83
2023/12/07 03:31:29;;;;;;;36.10;13.90;;;0.80;99.90;;;;;;5065957;28;20177;-83
2023/12/07 03:33:56;;;;;;;34.37;13.37;;;0.80;99.90;;;;;;5047290;28;20331;-83
2023/12/07 03:36:22;;;;;;;33.38;12.07;;;0.80;99.90;;;;;;5065059;28;20591;-83
2023/12/07 03:38:48;;;;;;;35.33;12.55;;;0.70;99.90;;;;;;5065064;28;20169;-83
2023/12/07 03:41:15;;;;;;;29.67;12.27;;;0.70;99.90;;;;;;5064729;28;20204;-83
2023/12/07 03:43:40;;;;;;;33.45;12.20;;;0.70;99.90;;;;;;5064960;28;20528;-83
2023/12/07 03:46:08;;;;;;;31.03;12.10;;;0.80;99.90;;;;;;5047672;28;20175;-83
2023/12/07 03:48:34;;;;;;;30.00;12.45;;;0.80;99.90;;;;;;5065396;28;20164;-83
2023/12/07 03:51:01;;;;;;;33.80;12.13;;;0.80;99.90;;;;;;5047688;28;20172;-83
2023/12/07 03:53:27;;;;;;;31.08;11.63;;;0.90;99.90;;;;;;5047185;28;20427;-83
2023/12/07 03:55:53;;;;;;;33.33;12.23;;;0.90;99.90;;;;;;5066331;28;20631;-83
2023/12/07 03:58:19;;;;;;;32.40;11.37;;;1.00;99.90;;;;;;5048363;28;20424;-83
2023/12/07 04:00:45;;;;;;;32.25;11.68;;;1.10;99.90;;;;;;5048091;28;20506;-83
2023/12/07 04:03:11;;;;;;;34.85;13.48;;;1.10;99.90;;;;;;5065250;28;20156;-83
2023/12/07 04:05:37;;;;;;;30.93;11.13;;;1.10;99.90;;;;;;5066042;28;20192;-83
2023/12/07 04:08:05;;;;;;;32.03;12.30;;;1.20;99.90;;;;;;5098658;23;20227;-85
2023/12/07 04:10:30;;;;;;;30.88;11.52;;;1.20;99.90;;;;;;5039699;28;20538;-85
2023/12/07 04:12:56;;;;;;;36.53;12.50;;;1.10;99.90;;;;;;5057665;28;20171;-85
2023/12/07 04:15:22;;;;;;;32.17;11.90;;;1.10;99.90;;;;;;5057432;28;20449;-85
2023/12/07 04:17:48;;;;;;;32.08;11.73;;;1.10;99.90;;;;;;5039483;28;20175;-85
2023/12/07 04:20:14;;;;;;;33.33;11.97;;;1.10;99.90;;;;;;5057688;28;20176;-85
2023/12/07 04:22:40;;;;;;;30.50;11.27;;;1.10;99.90;;;;;;5058638;28;20447;-85
2023/12/07 04:25:06;;;;;;;31.60;12.97;;;1.10;99.90;;;;;;5043195;28;20701;-85
2023/12/07 04:27:33;;;;;;;31.10;11.23;;;1.10;99.90;;;;;;5061164;28;20929;-85
2023/12/07 04:29:59;;;;;;;30.95;11.57;;;1.00;99.90;;;;;;5043229;28;20165;-85
2023/12/07 04:32:25;;;;;;;30.40;10.57;;;1.00;99.90;;;;;;5060656;28;20663;-85
2023/12/07 04:34:51;;;;;;;28.77;10.35;;;1.00;99.90;;;;;;5060618;28;20330;-85
2023/12/07 04:37:17;;;;;;;32.17;12.07;;;1.00;99.90;;;;;;5043063;28;20196;-85
2023/12/07 04:39:43;;;;;;;40.63;11.65;;;1.10;99.90;;;;;;5060416;28;20259;-85
2023/12/07 04:42:09;;;;;;;34.60;12.50;;;1.10;99.90;;;;;;5043044;28;20208;-85
2023/12/07 04:44:34;;;;;;;34.47;10.87;;;1.10;99.90;;;;;;5042913;28;20437;-85
2023/12/07 04:47:00;;;;;;;34.10;11.20;;;1.10;99.90;;;;;;5060119;28;20526;-85
2023/12/07 04:49:26;;;;;;;32.93;11.23;;;1.20;99.90;;;;;;5060238;28;20173;-85
2023/12/07 04:51:52;;;;;;;41.83;10.98;;;1.20;99.90;;;;;;5060338;28;20166;-85
2023/12/07 04:54:19;;;;;;;30.80;10.80;;;1.30;99.90;;;;;;5042276;28;20210;-85
2023/12/07 04:56:47;;;;;;;30.55;9.93;;;1.30;99.90;;;;;;5043174;28;20214;-85
2023/12/07 04:59:13;;;;;;;31.45;11.85;;;1.40;99.90;;;;;;5061031;28;20258;-85
2023/12/07 05:01:39;;;;;;;30.03;9.67;;;1.40;99.90;;;;;;5043224;28;20209;-85
2023/12/07 05:04:05;;;;;;;31.23;11.93;;;1.40;99.90;;;;;;5043197;28;20431;-86
2023/12/07 05:06:32;;;;;;;31.80;11.07;;;1.40;99.90;;;;;;5043160;28;20541;-85
2023/12/07 05:08:58;;;;;;;32.60;10.43;;;1.40;99.90;;;;;;5059999;28;20184;-85
2023/12/07 05:11:26;;;;;;;28.73;10.35;;;1.40;99.90;;;;;;5043112;28;20169;-86
2023/12/07 05:13:52;;;;;;;32.22;11.35;;;1.40;99.90;;;;;;5042856;28;20199;-83
2023/12/07 05:16:18;;;;;;;37.70;11.33;;;1.40;99.90;;;;;;5042927;28;20207;-83
2023/12/07 05:18:44;;;;;;;31.47;9.67;;;1.40;99.90;;;;;;5042986;28;20177;-86
2023/12/07 05:21:09;;;;;;;32.13;10.50;;;1.40;99.90;;;;;;5061327;28;20241;-86
2023/12/07 05:23:35;;;;;;;29.87;10.80;;;1.50;99.90;;;;;;5042905;28;20534;-86
2023/12/07 05:26:04;;;;;;;31.33;11.97;;;1.50;99.90;;;;;;5042904;28;20489;-86
2023/12/07 05:28:29;;;;;;;35.10;11.98;;;1.40;99.90;;;;;;5060875;28;20399;-86
2023/12/07 05:30:57;;;;;;;32.37;10.83;;;1.40;99.90;;;;;;5042657;28;20168;-86
2023/12/07 05:33:25;;;;;;;31.48;11.02;;;1.40;99.90;;;;;;5042062;28;20537;-86
2023/12/07 05:35:51;;;;;;;34.55;11.80;;;1.50;99.90;;;;;;5041991;28;20215;-86
2023/12/07 05:38:17;;;;;;;37.40;13.03;;;1.50;99.90;;;;;;5042090;28;20169;-86
2023/12/07 05:40:42;;;;;;;31.30;10.20;;;1.50;99.90;;;;;;5059902;28;20168;-86
2023/12/07 05:43:08;;;;;;;32.00;11.30;;;1.40;99.90;;;;;;5059166;28;20654;-86
2023/12/07 05:45:34;;;;;;;28.93;10.73;;;1.40;99.90;;;;;;5059803;28;20181;-86
2023/12/07 05:47:59;;;;;;;33.03;11.43;;;1.40;99.90;;;;;;5041615;28;20174;-86
2023/12/07 05:50:26;;;;;;;32.47;11.33;;;1.30;99.90;;;;;;5059853;28;20172;-86
2023/12/07 05:52:52;;;;;;;28.02;8.50;;;1.30;99.90;;;;;;5059909;28;20178;-84
2023/12/07 05:55:18;;;;;;;31.33;10.20;;;1.40;99.90;;;;;;5060205;28;20279;-84
2023/12/07 05:57:46;;;;;;;29.10;9.30;;;1.30;99.90;;;;;;5060351;28;20406;-84
2023/12/07 06:00:12;;;;;;;28.65;9.38;;;1.30;99.90;;;;;;5059907;28;20173;-84
2023/12/07 06:02:41;;;;;;;31.42;10.10;;;1.30;99.90;;;;;;5041904;28;20199;-84
2023/12/07 06:05:07;;;;;;;28.75;10.38;;;1.30;99.90;;;;;;5059812;28;20173;-84
2023/12/07 06:07:33;;;;;;;31.42;10.55;;;1.30;99.90;;;;;;5041858;28;20184;-84
2023/12/07 06:09:59;;;;;;;27.85;10.25;;;1.30;99.90;;;;;;5060127;28;20170;-84
2023/12/07 06:12:25;;;;;;;34.63;13.13;;;1.30;99.90;;;;;;5059333;28;20180;-83
2023/12/07 06:14:50;;;;;;;32.30;11.97;;;1.20;99.90;;;;;;5058975;28;20689;-84
2023/12/07 06:17:16;;;;;;;30.20;9.93;;;1.20;99.90;;;;;;5041152;28;20671;-84
2023/12/07 06:19:44;;;;;;;31.47;10.83;;;1.20;99.90;;;;;;5041463;28;20207;-84
2023/12/07 06:22:13;;;;;;;32.38;10.27;;;1.20;99.90;;;;;;5041096;28;20444;-83
2023/12/07 06:24:42;;;;;;;30.45;10.55;;;1.20;99.90;;;;;;5059425;28;20691;-84
2023/12/07 06:27:07;;;;;;;31.50;10.07;;;1.20;99.90;;;;;;5059490;28;20169;-84
2023/12/07 06:29:33;;;;;;;30.63;11.53;;;1.10;99.90;;;;;;5059640;28;20195;-84
2023/12/07 06:32:00;;;;;;;28.00;10.47;;;1.10;99.90;;;;;;5059149;28;20403;-83
2023/12/07 06:34:27;;;;;;;28.02;9.52;;;1.10;99.90;;;;;;5058751;28;20183;-85
2023/12/07 06:36:53;;;;;;;28.40;8.68;;;1.20;99.90;;;;;;5058721;28;20165;-85
2023/12/07 06:39:19;;;;;;;30.50;9.07;;;1.20;99.90;;;;;;5058567;28;20188;-85
2023/12/07 06:41:50;;;;;;;33.23;10.00;;;1.10;99.90;;;;;;5058274;28;20443;-85
2023/12/07 06:44:24;;;;;;;28.48;8.82;;;1.10;99.90;;;;;;5058699;28;20451;-85
2023/12/07 06:46:50;;;;;;;28.05;9.20;;;1.10;99.90;;;;;;5058287;28;20147;-85
2023/12/07 06:49:16;;;;;;;28.57;9.07;;;1.00;99.90;;;;;;5040722;28;20176;-85
2023/12/07 06:51:41;;;;;;;38.93;10.00;;;1.00;99.90;;;;;;5058431;28;20672;-85
2023/12/07 06:54:10;;;;;;;29.83;8.70;;;1.00;99.90;;;;;;5058561;28;20196;-85
2023/12/07 06:56:38;;;;;;;31.55;10.77;;;1.00;99.90;;;;;;5057909;28;20169;-85
2023/12/07 06:59:07;;;;;;;27.35;8.75;;;1.10;99.90;;;;;;5057698;28;20224;-85
2023/12/07 07:04:26;;;;;;;28.70;9.20;;;1.00;99.90;;;;;;5053823;28;20199;-85
2023/12/07 07:06:52;;;;;;;30.25;9.27;;;1.00;99.90;;;;;;5057265;28;20239;-85
2023/12/07 07:09:20;;;;;;;29.33;8.53;;;0.90;99.90;;;;;;5057248;28;20165;-85
2023/12/07 07:11:48;;;;;;;26.25;8.77;;;0.90;99.90;;;;;;5057576;28;20226;-85
2023/12/07 07:14:14;;;;;;;30.80;9.25;;;0.90;99.90;;;;;;5203520;22;20251;-84
2023/12/07 07:16:45;;;;;;;28.75;9.43;;;0.90;99.90;;;;;;5056727;28;20192;-85
2023/12/07 07:19:11;;;;;;;34.40;10.35;;;0.90;99.90;;;;;;5057453;28;20182;-85
2023/12/07 07:21:37;;;;;;;26.60;9.07;;;0.90;99.90;;;;;;5039996;28;20543;-85
2023/12/07 07:24:03;;;;;;;26.70;9.27;;;0.90;99.90;;;;;;5057250;28;20423;-85
2023/12/07 07:26:29;;;;;;;28.97;10.20;;;0.90;99.90;;;;;;5063139;28;20161;-85
2023/12/07 07:28:54;;;;;;;31.40;9.27;;;0.90;99.90;;;;;;5064307;28;20410;-85
2023/12/07 07:31:20;;;;;;;32.37;10.00;;;0.90;99.90;;;;;;5063676;28;20771;-83
2023/12/07 07:33:47;;;;;;;35.23;9.40;;;0.90;99.90;;;;;;5064699;28;20419;-83
2023/12/07 07:36:16;;;;;;;27.58;9.70;;;0.80;99.90;;;;;;5046612;28;20198;-83
2023/12/07 07:38:43;;;;;;;28.30;10.30;;;0.90;99.90;;;;;;5064436;28;20176;-83
2023/12/07 07:41:10;;;;;;;32.90;10.60;;;0.80;99.90;;;;;;5064858;28;20554;-83
2023/12/07 07:43:36;;;;;;;37.08;10.15;;;0.80;99.90;;;;;;5046998;28;20175;-83
2023/12/07 07:46:04;;;;;;;31.55;9.10;;;0.80;99.90;;;;;;5045839;28;20165;-83
2023/12/07 07:53:25;;;;;;;31.08;10.50;;;0.80;99.90;;;;;;5080242;28;20689;-85
2023/12/07 07:55:57;;;;;;;36.40;11.50;;;0.70;99.90;;;;;;5059850;28;20157;-84
2023/12/07 07:58:23;;;;;;;33.95;11.80;;;0.70;99.90;;;;;;5058958;28;20161;-85
2023/12/07 08:00:49;;;;;;;30.43;11.20;;;0.80;99.90;;;;;;5047351;28;20173;-85
2023/12/07 08:03:15;;;;;;;32.30;12.07;;;0.80;99.90;;;;;;5050028;28;20179;-85
2023/12/07 08:05:41;;;;;;;35.60;12.30;;;0.90;99.90;;;;;;5049007;28;20220;-85
2023/12/07 08:08:07;;;;;;;32.22;11.98;;;1.00;99.90;;;;;;5048321;28;20268;-85
2023/12/07 08:10:35;;;;;;;34.90;12.15;;;0.90;99.90;;;;;;5067841;28;20164;-85
2023/12/07 08:13:04;;;;;;;38.13;13.52;;;0.80;99.90;;;;;;5049709;28;20267;-85
2023/12/07 08:15:30;;;;;;;35.50;13.05;;;0.90;99.90;;;;;;5066685;28;20189;-84
2023/12/07 08:17:56;;;;;;;35.90;13.07;;;1.00;99.90;;;;;;5049534;28;20179;-85
2023/12/07 08:20:31;;;;;;;36.67;14.10;;;0.90;99.90;;;;;;5049119;28;20172;-85
2023/12/07 08:22:59;;;;;;;35.05;12.63;;;0.90;99.90;;;;;;5067736;28;20241;-85
2023/12/07 08:25:28;;;;;;;36.38;13.75;;;0.90;99.90;;;;;;5049546;28;20191;-85
2023/12/07 08:27:54;;;;;;;35.90;13.05;;;0.90;99.90;;;;;;5067265;28;20171;-85
2023/12/07 08:30:20;;;;;;;36.40;13.47;;;1.00;99.90;;;;;;5067000;28;20166;-85
2023/12/07 08:32:48;;;;;;;33.00;11.87;;;1.00;99.90;;;;;;5067014;28;20425;-85
2023/12/07 08:35:14;;;;;;;35.17;13.07;;;1.10;99.90;;;;;;5049545;28;20484;-85
2023/12/07 08:37:40;;;;;;;35.93;12.53;;;1.20;99.90;;;;;;5067203;28;20172;-85
2023/12/07 08:40:06;;;;;;;35.20;13.30;;;1.20;99.90;;;;;;5067252;28;20195;-85
2023/12/07 08:42:38;;;;;;;36.35;13.38;;;1.20;99.90;;;;;;5049581;28;20271;-85
2023/12/07 08:45:04;;;;;;;35.95;14.30;;;1.10;99.90;;;;;;5066723;28;20275;-85
2023/12/07 08:47:36;;;;;;;32.80;12.05;;;1.10;99.90;;;;;;5067295;28;20244;-85
2023/12/07 08:50:07;;;;;;;35.90;13.05;;;1.10;99.90;;;;;;5048941;28;20243;-85
2023/12/07 08:52:33;;;;;;;34.10;12.10;;;1.20;99.90;;;;;;5065430;28;20775;-85
2023/12/07 08:55:04;;;;;;;32.97;13.43;;;1.20;99.90;;;;;;5048281;28;20669;-85
2023/12/07 08:57:30;;;;;;;36.72;13.32;;;1.20;99.90;;;;;;5048202;28;20178;-85
2023/12/07 08:59:56;;;;;;;37.07;14.07;;;1.20;99.90;;;;;;5047316;28;20244;-85
2023/12/07 09:02:23;;;;;;;34.17;12.70;;;1.20;99.90;;;;;;5048067;28;20216;-85
2023/12/07 09:04:52;;;;;;;35.05;14.32;;;1.20;99.90;;;;;;5066035;28;20234;-85
2023/12/07 09:07:21;;;;;;;34.10;12.32;;;1.20;99.90;;;;;;5065062;28;20160;-85
2023/12/07 09:09:49;;;;;;;36.42;12.75;;;1.30;99.90;;;;;;5065212;28;20248;-85
2023/12/07 09:12:15;;;;;;;35.58;13.30;;;1.30;99.90;;;;;;5064866;28;20176;-85
2023/12/07 09:14:44;;;;;;;31.65;11.52;;;1.30;99.90;;;;;;5046398;28;20192;-85
2023/12/07 09:17:12;;;;;;;40.17;12.88;;;1.30;99.90;;;;;;5045990;28;20186;-83
2023/12/07 09:19:49;;;;;;;35.80;13.10;;;1.30;99.90;;;;;;5063410;28;20169;-83
2023/12/07 09:22:27;;;;;;;39.03;13.15;;;1.40;99.90;;;;;;5063233;28;20211;-83
2023/12/07 09:24:56;;;;;;;35.65;12.98;;;1.40;99.90;;;;;;5062607;28;20180;-83
2023/12/07 09:27:22;;;;;;;40.70;14.57;;;1.50;99.90;;;;;;5062611;28;20161;-86
2023/12/07 09:29:51;;;;;;;37.72;13.20;;;1.50;99.90;;;;;;5062074;28;20170;-86
2023/12/07 09:32:25;;;;;;;35.33;13.18;;;1.50;99.90;;;;;;5043878;28;20177;-86
2023/12/07 09:34:53;;;;;;;34.63;12.63;;;1.50;99.90;;;;;;5060827;28;20189;-86
2023/12/07 09:37:39;;;;;;;37.65;13.02;;;1.70;99.90;;;;;;5062160;28;20252;-86
2023/12/07 09:40:20;;;;;;;34.05;12.23;;;1.70;99.90;;;;;;5043673;28;20158;-86
2023/12/07 09:42:50;;;;;;;32.33;11.55;;;1.70;99.90;;;;;;5043917;28;20188;-86
2023/12/07 09:45:29;;;;;;;38.72;12.35;;;1.80;99.90;;;;;;5041952;28;20200;-86
2023/12/07 09:48:20;;;;;;;38.92;12.95;;;1.80;99.90;;;;;;5059645;28;20137;-86
2023/12/07 09:50:55;;;;;;;35.05;12.27;;;1.90;99.90;;;;;;5051165;28;20179;-86
2023/12/07 09:53:23;;;;;;;35.55;12.52;;;2.00;99.90;;;;;;5059348;28;20180;-86
2023/12/07 09:55:52;;;;;;;36.67;13.23;;;2.00;99.90;;;;;;5043711;28;20216;-86
2023/12/07 09:58:19;;;;;;;31.50;11.00;;;2.10;99.90;;;;;;5063380;28;20198;-86
2023/12/07 10:00:46;;;;;;;32.15;11.80;;;2.10;99.90;;;;;;5062174;28;20173;-87
2023/12/07 10:03:22;;;;;;;34.10;11.18;;;2.20;99.90;;;;;;5060724;28;20184;-86
2023/12/07 10:05:55;;;;;;;35.05;10.45;;;2.20;99.90;;;;;;5046511;28;20184;-86
2023/12/07 10:08:32;;;;;;;31.05;10.93;;;2.30;99.90;;;;;;5044675;28;20665;-86
2023/12/07 10:11:13;;;;;;;33.63;11.63;;;2.30;99.90;;;;;;5060587;28;20169;-86
2023/12/07 10:13:42;;;;;;;34.13;11.65;;;2.30;99.90;;;;;;5059467;28;20562;-86
2023/12/07 10:16:15;;;;;;;34.78;11.65;;;2.40;99.90;;;;;;5043539;28;20173;-86
2023/12/07 10:18:41;;;;;;;33.60;11.20;;;2.50;99.90;;;;;;5042097;28;20168;-86
2023/12/07 10:21:31;;;;;;;31.00;10.07;;;2.50;99.90;;;;;;5059355;28;20197;-86
2023/12/07 10:23:57;;;;;;;35.47;10.57;;;2.40;99.90;;;;;;5058475;28;20427;-86
2023/12/07 10:26:44;;;;;;;32.00;10.45;;;2.40;99.90;;;;;;5059092;28;20162;-87
2023/12/07 10:29:20;;;;;;;38.28;11.38;;;2.40;99.90;;;;;;5041857;28;20165;-86
2023/12/07 10:31:51;;;;;;;34.67;10.55;;;2.40;99.90;;;;;;5058241;28;20175;-86
2023/12/07 10:34:20;;;;;;;30.13;11.30;;;2.50;99.90;;;;;;5058239;28;20177;-86
2023/12/07 10:36:58;;;;;;;34.40;11.77;;;2.60;99.90;;;;;;5040082;28;20246;-86
2023/12/07 10:39:59;;;;;;;33.00;11.50;;;2.70;99.90;;;;;;5057772;28;20558;-86
2023/12/07 10:42:40;;;;;;;35.90;11.32;;;2.70;99.90;;;;;;4961438;28;20300;-86
2023/12/07 10:45:07;;;;;;;31.65;11.75;;;2.70;99.90;;;;;;5049720;28;20204;-86
2023/12/07 10:47:37;;;;;;;35.75;11.27;;;2.80;99.90;;;;;;5057846;28;20165;-86
2023/12/07 10:50:13;;;;;;;35.15;10.15;;;2.90;99.90;;;;;;5040333;28;20256;-86
2023/12/07 10:52:51;;;;;;;30.60;10.45;;;2.90;99.90;;;;;;5057829;28;20241;-86
2023/12/07 10:55:25;;;;;;;36.97;11.75;;;2.90;99.90;;;;;;5057039;28;20230;-86
2023/12/07 10:57:55;;;;;;;36.20;11.57;;;2.90;99.90;;;;;;5057879;28;20141;-86
2023/12/07 11:00:27;;;;;;;34.63;11.38;;;3.00;99.90;;;;;;5038775;28;20184;-86
2023/12/07 11:02:53;;;;;;;32.22;11.35;;;3.10;99.90;;;;;;5037611;28;20219;-86
2023/12/07 11:05:19;;;;;;;36.92;12.07;;;3.10;99.90;;;;;;5037825;28;20228;-86
2023/12/07 11:07:54;;;;;;;30.30;11.15;;;3.10;99.90;;;;;;5055929;28;20168;-85
2023/12/07 11:10:36;;;;;;;34.90;13.35;;;3.20;99.90;;;;;;5055725;28;20156;-85
2023/12/07 11:13:27;;;;;;;30.15;10.50;;;3.10;99.90;;;;;;5037830;28;20172;-85
2023/12/07 11:15:53;;;;;;;33.88;11.95;;;3.00;99.90;;;;;;5037629;28;20207;-85
2023/12/07 11:18:20;;;;;;;31.07;11.70;;;3.00;99.90;;;;;;5037893;28;20226;-85
2023/12/07 11:20:47;;;;;;;30.45;10.35;;;3.00;99.90;;;;;;5055158;28;20161;-85
2023/12/07 11:23:23;;;;;;;32.50;12.07;;;3.10;99.90;;;;;;5036968;28;20536;-85
2023/12/07 11:25:50;;;;;;;32.78;11.57;;;3.10;99.90;;;;;;5054920;28;20236;-85
2023/12/07 11:28:16;;;;;;;31.98;10.90;;;3.10;99.90;;;;;;5054706;28;20161;-84
2023/12/07 11:30:44;;;;;;;29.27;10.43;;;3.10;99.90;;;;;;5055436;28;20158;-86
2023/12/07 11:33:11;;;;;;;32.33;11.05;;;3.20;99.90;;;;;;5054226;28;20260;-85
2023/12/07 11:38:11;;;;;;;33.25;11.48;;;3.10;99.90;;;;;;5353996;22;20213;-84
2023/12/07 11:43:05;;;;;;;31.70;10.95;;;3.00;99.90;;;;;;5053004;28;20201;-85
2023/12/07 11:45:42;;;;;;;29.10;10.10;;;3.00;99.90;;;;;;5055436;28;20184;-85
2023/12/07 11:48:10;;;;;;;28.80;9.50;;;3.00;99.90;;;;;;5037878;28;20244;-85
2023/12/07 11:50:35;;;;;;;33.38;11.88;;;3.00;99.90;;;;;;5055863;28;20215;-85
2023/12/07 11:53:01;;;;;;;29.70;10.37;;;3.00;99.90;;;;;;5038105;28;20169;-85
2023/12/07 11:55:27;;;;;;;31.60;10.93;;;3.10;99.90;;;;;;5055571;28;20227;-85
2023/12/07 11:57:53;;;;;;;32.47;10.37;;;3.10;99.90;;;;;;5037571;28;20176;-85
2023/12/07 12:00:20;;;;;;;39.28;9.52;;;3.10;99.90;;;;;;5037185;28;20331;-85
2023/12/07 12:02:48;;;;;;;32.72;11.80;;;3.10;99.90;;;;;;5055445;28;20193;-85
2023/12/07 12:05:15;;;;;;;38.35;11.75;;;3.10;99.90;;;;;;5036301;28;20219;-85
2023/12/07 12:07:48;;;;;;;34.97;10.80;;;3.20;99.90;;;;;;5055268;28;20168;-85
2023/12/07 12:10:20;;;;;;;28.50;10.68;;;3.20;99.90;;;;;;5055970;28;20634;-85
2023/12/07 12:12:46;;;;;;;28.92;9.93;;;3.30;99.90;;;;;;5037976;28;20169;-85
2023/12/07 12:15:15;;;;;;;36.50;10.27;;;3.30;99.90;;;;;;5055280;28;20199;-85
2023/12/07 12:17:41;;;;;;;32.15;10.07;;;3.40;99.90;;;;;;5055639;28;20457;-85
2023/12/07 12:20:10;;;;;;;29.33;9.38;;;3.40;99.90;;;;;;5038408;28;20176;-85
2023/12/07 12:22:37;;;;;;;29.88;9.48;;;3.40;99.90;;;;;;5056428;28;20185;-85
2023/12/07 12:25:08;;;;;;;29.67;10.40;;;3.40;99.90;;;;;;5038155;28;20188;-85
2023/12/07 12:27:44;;;;;;;30.65;9.57;;;3.50;99.90;;;;;;5038492;28;20158;-85
2023/12/07 12:30:13;;;;;;;33.15;10.15;;;3.40;99.90;;;;;;5055987;28;20150;-85
2023/12/07 12:32:50;;;;;;;36.55;10.95;;;3.40;99.90;;;;;;5038485;28;20655;-85
2023/12/07 12:35:17;;;;;;;35.97;10.93;;;3.40;99.90;;;;;;5056048;28;20177;-85
2023/12/07 12:37:48;;;;;;;34.53;10.65;;;3.40;99.90;;;;;;5056312;28;20244;-85
2023/12/07 12:40:19;;;;;;;34.60;10.65;;;3.40;99.90;;;;;;5056271;28;20248;-85
2023/12/07 12:42:50;;;;;;;27.98;8.57;;;3.40;99.90;;;;;;5038165;28;20287;-85
2023/12/07 12:45:22;;;;;;;29.40;9.15;;;3.40;99.90;;;;;;5041652;28;20263;-85
2023/12/07 12:47:48;;;;;;;33.30;9.15;;;3.50;99.90;;;;;;5042388;28;20169;-85
2023/12/07 12:50:38;;;;;;;34.28;10.13;;;3.60;99.90;;;;;;5059872;28;20662;-85
2023/12/07 12:53:15;;;;;;;25.77;8.05;;;3.50;99.90;;;;;;5059437;28;20165;-85
2023/12/07 12:55:43;;;;;;;28.30;9.60;;;3.60;99.90;;;;;;5042635;28;20215;-85
2023/12/07 12:58:10;;;;;;;26.52;8.82;;;3.60;99.90;;;;;;5058827;28;20177;-85
2023/12/07 13:00:58;;;;;;;27.83;8.52;;;3.60;99.90;;;;;;5040645;28;20235;-85
2023/12/07 13:03:26;;;;;;;28.95;10.20;;;3.50;99.90;;;;;;5059510;28;20158;-86